Time;durP1;ratioP1;P1;durP2;ratioP2;P2;SDS_P1;SDS_P2;PMS_P1;PMS_P2;Temp;Humidity;BMP_temperature;BMP_pressure;BME280_temperature;BME280_humidity;BME280_pressure;Samples;Min_cycle;Max_cycle;Signal;HPM_P1;HPM_P2
2022/02/07 00:03:57;;;;;;;0.43;0.35;;;4.30;99.90;;;;;;4990291;28;20584;-77
2022/02/07 00:06:23;;;;;;;1.70;0.55;;;4.40;99.90;;;;;;5073934;28;20067;-78
2022/02/07 00:08:51;;;;;;;1.15;0.32;;;4.50;99.90;;;;;;5092378;28;20032;-77
2022/02/07 00:11:17;;;;;;;0.52;0.43;;;4.50;99.90;;;;;;5092227;28;20028;-78
2022/02/07 00:13:43;;;;;;;3.30;0.68;;;4.50;99.90;;;;;;5057298;28;20052;-79
2022/02/07 00:16:10;;;;;;;1.23;0.80;;;4.50;99.90;;;;;;5074673;28;20040;-79
2022/02/07 00:18:37;;;;;;;2.47;0.50;;;4.40;99.90;;;;;;5092065;28;20039;-79
2022/02/07 00:21:05;;;;;;;5.55;0.80;;;4.40;99.90;;;;;;5092213;28;20032;-78
2022/02/07 00:23:31;;;;;;;0.60;0.50;;;4.50;99.90;;;;;;5091929;28;20035;-79
2022/02/07 00:26:00;;;;;;;2.83;1.00;;;4.50;99.90;;;;;;5092372;28;20054;-79
2022/02/07 00:28:26;;;;;;;0.85;0.55;;;4.50;99.90;;;;;;5091613;28;20456;-79
2022/02/07 00:30:52;;;;;;;1.88;0.60;;;4.50;99.90;;;;;;5092643;28;20043;-80
2022/02/07 00:33:19;;;;;;;0.50;0.30;;;4.60;99.90;;;;;;5092011;28;20028;-79
2022/02/07 00:35:45;;;;;;;0.50;0.25;;;4.60;99.90;;;;;;5091305;28;20048;-81
2022/02/07 00:38:17;;;;;;;1.30;0.70;;;4.60;99.90;;;;;;5091642;28;20419;-79
2022/02/07 00:45:57;;;;;;;1.10;0.50;;;4.70;99.90;;;;;;5073093;28;20040;-79
2022/02/07 00:48:24;;;;;;;0.77;0.25;;;4.70;99.90;;;;;;5074097;28;20461;-79
2022/02/07 00:50:55;;;;;;;1.23;0.57;;;4.60;99.90;;;;;;5073351;28;20040;-79
2022/02/07 00:53:24;;;;;;;;;;;4.60;99.90;;;;;;5074056;28;20044;-79
2022/02/07 00:55:52;;;;;;;2.70;0.50;;;4.60;99.90;;;;;;5073631;28;19908;-78
2022/02/07 00:58:20;;;;;;;0.30;0.20;;;4.60;99.90;;;;;;5072826;28;20040;-79
2022/02/07 01:00:46;;;;;;;0.82;0.43;;;4.60;99.90;;;;;;5072897;28;20044;-80
2022/02/07 01:03:13;;;;;;;0.57;0.30;;;4.60;99.90;;;;;;5073851;28;20052;-79
2022/02/07 01:05:41;;;;;;;4.40;0.40;;;4.60;99.90;;;;;;5073017;28;20040;-79
2022/02/07 01:08:16;;;;;;;1.55;0.63;;;4.50;99.90;;;;;;5073521;28;20048;-79
2022/02/07 01:11:00;;;;;;;1.58;0.30;;;4.50;99.90;;;;;;5091693;28;20039;-80
2022/02/07 01:19:33;;;;;;;2.40;0.50;;;4.40;99.90;;;;;;5087350;28;19908;-78
2022/02/07 01:22:27;;;;;;;0.43;0.32;;;4.40;99.90;;;;;;5095752;28;20029;-79
2022/02/07 01:55:09;;;;;;;0.95;0.50;;;4.00;99.90;;;;;;5076294;28;20047;-79
2022/02/07 01:57:35;;;;;;;1.23;0.50;;;4.00;99.90;;;;;;5075104;28;20044;-79
2022/02/07 02:00:05;;;;;;;3.47;0.82;;;4.00;99.90;;;;;;5076042;28;20047;-78
2022/02/07 02:02:32;;;;;;;1.10;0.65;;;4.10;99.90;;;;;;5076272;28;20469;-79
2022/02/07 02:04:59;;;;;;;1.58;0.80;;;4.10;99.90;;;;;;5076067;28;20044;-78
2022/02/07 02:07:35;;;;;;;4.25;2.05;;;4.20;99.90;;;;;;5075737;28;20394;-79
2022/02/07 02:10:04;;;;;;;5.90;0.60;;;4.20;99.90;;;;;;5077056;28;20032;-78
2022/02/07 02:12:35;;;;;;;1.35;0.40;;;4.10;99.90;;;;;;5075713;28;20042;-80
2022/02/07 02:15:51;;;;;;;3.72;1.10;;;4.10;99.90;;;;;;5076008;28;20043;-79
2022/02/07 02:45:32;;;;;;;0.43;0.20;;;3.60;99.90;;;;;;4992453;28;20050;-78
2022/02/07 02:48:09;;;;;;;0.30;0.17;;;3.60;99.90;;;;;;4992978;28;20543;-77
2022/02/07 02:50:37;;;;;;;0.70;0.20;;;3.60;99.90;;;;;;4992664;28;20042;-78
2022/02/07 02:53:15;;;;;;;0.38;0.35;;;3.60;99.90;;;;;;4994870;28;20035;-77
2022/02/07 02:55:44;;;;;;;0.30;0.17;;;3.50;99.90;;;;;;4995123;28;20057;-79
2022/02/07 02:58:13;;;;;;;0.60;0.30;;;3.10;99.90;;;;;;4992938;28;20047;-79
2022/02/07 03:00:41;;;;;;;0.17;0.10;;;3.00;99.90;;;;;;4975268;28;20121;-80
2022/02/07 03:03:17;;;;;;;0.82;0.20;;;2.80;99.90;;;;;;4975501;28;20038;-80
2022/02/07 03:05:45;;;;;;;0.47;0.30;;;2.70;99.90;;;;;;4991081;28;20057;-81
2022/02/07 03:08:13;;;;;;;0.60;0.50;;;2.70;99.90;;;;;;4975366;28;20057;-80
2022/02/07 03:13:14;;;;;;;0.73;0.32;;;2.50;99.90;;;;;;5074915;28;20036;-80
2022/02/07 03:18:27;;;;;;;0.80;0.40;;;2.50;99.90;;;;;;5093197;28;20381;-79
2022/02/07 03:20:54;;;;;;;1.17;0.50;;;2.60;99.90;;;;;;5074251;28;20346;-78
2022/02/07 03:23:21;;;;;;;0.57;0.20;;;2.60;99.90;;;;;;5058412;28;20397;-79
2022/02/07 03:25:49;;;;;;;0.90;0.30;;;2.50;99.90;;;;;;5073782;28;20526;-79
2022/02/07 03:28:19;;;;;;;2.20;0.68;;;2.40;99.90;;;;;;5074234;28;20594;-80
2022/02/07 03:30:45;;;;;;;0.47;0.20;;;2.40;99.90;;;;;;5092573;28;20139;-79
2022/02/07 03:33:12;;;;;;;0.90;0.35;;;2.30;99.90;;;;;;5074391;28;20040;-79
2022/02/07 03:35:38;;;;;;;0.70;0.22;;;2.30;99.90;;;;;;5092275;28;20027;-79
2022/02/07 03:38:07;;;;;;;0.20;0.20;;;2.40;99.90;;;;;;5073395;28;20043;-79
2022/02/07 03:40:34;;;;;;;1.13;0.30;;;2.30;99.90;;;;;;5074108;28;20035;-77
2022/02/07 03:43:01;;;;;;;1.40;0.52;;;2.30;99.90;;;;;;5072415;28;20036;-79
2022/02/07 03:45:27;;;;;;;0.60;0.40;;;2.30;99.90;;;;;;5057427;28;20452;-78
2022/02/07 03:47:59;;;;;;;0.98;0.43;;;2.40;99.90;;;;;;5073460;28;20401;-78
2022/02/07 03:50:32;;;;;;;1.33;0.45;;;2.40;99.90;;;;;;5074147;28;20032;-79
2022/02/07 03:52:58;;;;;;;1.75;0.57;;;2.50;99.90;;;;;;5073525;28;20465;-78
2022/02/07 03:55:28;;;;;;;1.55;0.63;;;2.50;99.90;;;;;;5073693;28;20067;-78
2022/02/07 03:57:59;;;;;;;;;;;2.50;99.90;;;;;;5073154;28;20040;-79
2022/02/07 04:00:26;;;;;;;6.22;1.05;;;2.50;99.90;;;;;;5074552;28;19920;-78
2022/02/07 04:03:09;;;;;;;2.38;0.70;;;2.40;99.90;;;;;;5074255;28;20039;-79
2022/02/07 04:05:51;;;;;;;4.33;0.70;;;2.30;99.90;;;;;;5073320;28;20047;-79
2022/02/07 04:08:26;;;;;;;1.50;0.60;;;2.20;99.90;;;;;;5074001;28;20278;-80
2022/02/07 04:11:18;;;;;;;5.43;1.05;;;2.30;99.90;;;;;;5073163;28;20146;-80
2022/02/07 04:13:54;;;;;;;3.10;0.80;;;2.30;99.90;;;;;;5073566;28;20044;-79
2022/02/07 04:16:21;;;;;;;1.92;0.70;;;2.30;99.90;;;;;;5073973;28;20040;-80
2022/02/07 04:19:06;;;;;;;2.63;1.00;;;2.20;99.90;;;;;;5072838;28;20047;-80
2022/02/07 04:21:38;;;;;;;4.80;0.95;;;2.40;99.90;;;;;;5073785;28;20058;-80
2022/02/07 04:24:05;;;;;;;1.77;0.80;;;2.40;99.90;;;;;;5073831;28;20048;-80
2022/02/07 04:26:35;;;;;;;2.35;1.00;;;2.40;99.90;;;;;;5073399;28;20044;-80
2022/02/07 04:29:03;;;;;;;5.35;0.98;;;2.40;99.90;;;;;;5073736;28;20393;-80
2022/02/07 04:31:31;;;;;;;2.08;0.95;;;2.50;99.90;;;;;;5073741;28;20524;-79
2022/02/07 04:33:58;;;;;;;4.82;1.45;;;2.60;99.90;;;;;;5091246;28;20192;-80
2022/02/07 04:36:26;;;;;;;6.28;1.05;;;2.50;99.90;;;;;;5073376;28;20507;-79
2022/02/07 04:38:53;;;;;;;8.25;1.85;;;2.60;99.90;;;;;;5072908;28;20040;-80
2022/02/07 04:41:22;;;;;;;2.55;0.90;;;2.50;99.90;;;;;;5073566;28;20047;-79
2022/02/07 04:43:56;;;;;;;2.35;0.95;;;2.50;99.90;;;;;;5072984;28;20036;-80
2022/02/07 04:59:50;;;;;;;4.07;1.38;;;2.70;99.90;;;;;;5077473;28;20054;-79
2022/02/07 05:04:55;;;;;;;5.35;1.35;;;2.90;99.90;;;;;;5075939;28;20036;-79
2022/02/07 05:15:47;;;;;;;6.35;1.25;;;3.00;99.90;;;;;;5039131;28;20055;-80
2022/02/07 05:18:14;;;;;;;5.82;1.20;;;3.10;99.90;;;;;;5076981;28;20040;-79
2022/02/07 05:21:20;;;;;;;3.47;1.13;;;3.10;99.90;;;;;;5032740;28;20041;-79
2022/02/07 05:24:01;;;;;;;6.53;1.42;;;3.10;99.90;;;;;;5015533;28;20491;-79
2022/02/07 05:26:56;;;;;;;3.30;0.85;;;3.10;99.30;;;;;;5061784;28;20540;-80
2022/02/07 05:29:49;;;;;;;12.68;2.35;;;3.20;99.40;;;;;;5059917;28;20055;-79
2022/02/07 05:32:21;;;;;;;10.30;1.50;;;3.10;99.30;;;;;;5095158;28;20047;-79
2022/02/07 05:35:16;;;;;;;6.88;1.23;;;3.10;99.20;;;;;;5078679;28;20043;-76
2022/02/07 05:38:03;;;;;;;3.45;1.73;;;3.00;99.90;;;;;;5085950;28;20230;-78
2022/02/07 05:40:56;;;;;;;5.90;1.88;;;2.90;99.90;;;;;;5075958;28;20040;-79
2022/02/07 05:43:38;;;;;;;4.25;1.35;;;2.90;99.80;;;;;;5095334;28;20359;-79
2022/02/07 05:46:23;;;;;;;5.80;1.65;;;2.80;99.90;;;;;;5094853;28;20048;-80
2022/02/07 05:49:09;;;;;;;9.65;1.58;;;2.90;99.50;;;;;;5091972;28;20047;-80
2022/02/07 05:51:52;;;;;;;3.42;1.42;;;2.90;99.20;;;;;;5075797;28;20040;-80
2022/02/07 05:54:30;;;;;;;5.03;1.17;;;3.10;98.20;;;;;;5094806;28;20040;-80
2022/02/07 05:57:13;;;;;;;7.65;1.67;;;3.10;98.20;;;;;;5092588;28;20044;-82
2022/02/07 06:00:18;;;;;;;4.00;1.33;;;3.10;97.20;;;;;;5060333;28;20478;-82
2022/02/07 06:02:45;;;;;;;5.10;1.45;;;3.10;97.00;;;;;;5073724;28;20053;-82
2022/02/07 06:05:43;;;;;;;6.28;1.65;;;3.20;96.40;;;;;;5064516;28;20052;-83
2022/02/07 06:08:20;;;;;;;11.70;1.55;;;3.10;97.10;;;;;;5055866;28;20055;-81
2022/02/07 06:10:47;;;;;;;4.38;1.35;;;3.00;97.10;;;;;;5055236;28;20075;-82
2022/02/07 06:13:18;;;;;;;5.85;3.33;;;2.90;97.20;;;;;;5055812;28;20044;-81
2022/02/07 06:15:48;;;;;;;8.38;1.52;;;2.80;97.60;;;;;;5055057;28;20067;-81
2022/02/07 06:18:18;;;;;;;6.65;1.83;;;2.90;97.10;;;;;;5073959;28;20036;-82
2022/02/07 06:20:48;;;;;;;5.00;1.90;;;2.80;97.40;;;;;;5054542;28;20036;-81
2022/02/07 06:23:15;;;;;;;5.40;1.90;;;2.80;97.90;;;;;;5073874;28;20286;-81
2022/02/07 06:25:41;;;;;;;5.55;1.38;;;2.80;97.30;;;;;;5060609;28;20488;-79
2022/02/07 06:28:09;;;;;;;4.47;1.25;;;2.80;96.80;;;;;;5072573;28;20040;-81
2022/02/07 06:30:43;;;;;;;7.72;1.27;;;2.90;96.70;;;;;;5072803;28;20042;-80
2022/02/07 06:33:10;;;;;;;8.45;1.77;;;2.90;96.70;;;;;;5093288;28;20035;-80
2022/02/07 06:35:38;;;;;;;4.35;1.40;;;2.90;96.60;;;;;;5075227;28;20043;-79
2022/02/07 06:38:04;;;;;;;5.45;2.22;;;2.80;97.10;;;;;;5075125;28;20270;-80
2022/02/07 06:40:32;;;;;;;8.27;2.08;;;2.70;97.20;;;;;;5075441;28;20397;-80
2022/02/07 06:42:58;;;;;;;9.65;2.25;;;2.80;97.30;;;;;;5069958;28;20036;-81
2022/02/07 06:45:26;;;;;;;5.38;1.63;;;2.70;97.80;;;;;;5086989;28;20047;-80
2022/02/07 06:47:53;;;;;;;4.00;1.77;;;2.60;98.10;;;;;;5093448;28;20028;-80
2022/02/07 06:50:19;;;;;;;6.38;2.05;;;2.60;98.10;;;;;;5075557;28;20468;-80
2022/02/07 06:52:46;;;;;;;2.80;1.60;;;2.70;98.00;;;;;;5093226;28;20020;-80
2022/02/07 06:55:12;;;;;;;7.05;1.83;;;2.70;98.00;;;;;;5074555;28;20032;-81
2022/02/07 06:57:38;;;;;;;1.88;1.25;;;2.80;97.30;;;;;;5073555;28;20041;-81
2022/02/07 07:00:08;;;;;;;3.95;1.48;;;2.80;97.40;;;;;;5070615;28;20290;-80
2022/02/07 07:02:38;;;;;;;8.63;2.10;;;2.90;97.20;;;;;;5066475;28;20051;-81
2022/02/07 07:05:10;;;;;;;4.78;1.17;;;2.90;97.50;;;;;;5058546;28;20041;-81
2022/02/07 07:07:37;;;;;;;4.65;1.25;;;3.00;96.70;;;;;;5055062;28;20064;-81
2022/02/07 07:10:06;;;;;;;9.73;2.35;;;3.00;96.70;;;;;;5052995;28;20043;-82
2022/02/07 07:12:33;;;;;;;6.40;1.48;;;3.10;96.90;;;;;;5050616;28;20386;-80
2022/02/07 07:15:08;;;;;;;6.10;1.20;;;3.10;95.90;;;;;;5060821;28;20044;-79
2022/02/07 07:17:35;;;;;;;3.15;1.63;;;3.10;96.20;;;;;;5071513;28;20378;-79
2022/02/07 07:20:06;;;;;;;3.38;1.20;;;3.10;96.40;;;;;;5070194;28;20040;-79
2022/02/07 07:22:35;;;;;;;6.85;1.42;;;3.10;96.00;;;;;;5070983;28;20041;-80
2022/02/07 07:25:13;;;;;;;8.45;1.50;;;3.30;95.30;;;;;;5070652;28;20044;-81
2022/02/07 07:27:55;;;;;;;4.80;1.65;;;3.20;95.50;;;;;;5070656;28;20040;-80
2022/02/07 07:30:29;;;;;;;6.53;2.00;;;3.30;95.10;;;;;;5053434;28;20052;-80
2022/02/07 07:33:02;;;;;;;5.82;1.80;;;3.40;94.90;;;;;;5066982;28;20041;-80
2022/02/07 07:35:30;;;;;;;8.10;1.13;;;3.40;95.40;;;;;;5051389;28;20374;-80
2022/02/07 07:37:57;;;;;;;6.72;1.38;;;3.40;95.00;;;;;;5051015;28;20033;-80
2022/02/07 07:40:24;;;;;;;2.25;1.02;;;3.50;94.80;;;;;;5051135;28;20044;-80
2022/02/07 07:42:54;;;;;;;3.45;1.50;;;3.60;94.60;;;;;;5059993;28;20037;-80
2022/02/07 07:45:57;;;;;;;4.38;1.27;;;3.60;94.50;;;;;;5052758;28;20363;-81
2022/02/07 07:48:57;;;;;;;6.68;1.10;;;3.50;94.60;;;;;;5041247;28;20033;-80
2022/02/07 07:51:58;;;;;;;3.28;1.08;;;3.50;94.50;;;;;;5034470;28;20176;-79
2022/02/07 07:55:09;;;;;;;6.00;1.50;;;3.50;94.20;;;;;;5072429;28;20353;-78
2022/02/07 08:03:07;;;;;;;3.80;1.70;;;3.50;94.40;;;;;;5066512;28;19912;-77
2022/02/07 08:08:20;;;;;;;3.28;1.13;;;3.60;93.90;;;;;;5069911;28;20055;-78
2022/02/07 08:10:53;;;;;;;7.82;1.75;;;3.70;93.20;;;;;;5072419;28;20055;-75
2022/02/07 08:13:21;;;;;;;6.10;1.67;;;3.80;93.10;;;;;;5070914;28;20051;-82
2022/02/07 08:15:53;;;;;;;4.38;2.17;;;3.90;93.20;;;;;;5067473;28;20040;-76
2022/02/07 08:18:19;;;;;;;5.35;1.92;;;3.90;93.00;;;;;;5049932;28;20033;-77
2022/02/07 08:20:46;;;;;;;4.60;1.67;;;3.90;93.20;;;;;;5051230;28;20032;-75
2022/02/07 08:23:12;;;;;;;5.40;2.25;;;4.00;93.10;;;;;;5051589;28;20036;-76
2022/02/07 08:25:38;;;;;;;4.70;1.92;;;4.00;92.90;;;;;;5056101;28;20088;-76
2022/02/07 08:28:05;;;;;;;5.82;2.45;;;4.10;92.30;;;;;;5055000;28;20078;-76
2022/02/07 08:30:33;;;;;;;7.30;2.17;;;4.20;92.50;;;;;;5060918;28;20394;-77
2022/02/07 08:33:01;;;;;;;7.85;2.28;;;4.30;92.20;;;;;;5075284;28;20029;-76
2022/02/07 08:35:27;;;;;;;6.93;1.95;;;4.30;91.80;;;;;;5075682;28;20036;-78
2022/02/07 08:37:53;;;;;;;6.38;1.55;;;4.30;91.90;;;;;;5075177;28;20032;-77
2022/02/07 08:40:20;;;;;;;10.10;2.65;;;4.30;91.10;;;;;;5075537;28;20024;-75
2022/02/07 08:42:46;;;;;;;6.10;2.00;;;4.40;91.60;;;;;;5074674;28;20024;-76
2022/02/07 08:45:14;;;;;;;15.57;3.22;;;4.50;91.00;;;;;;5075228;28;20036;-76
2022/02/07 08:47:42;;;;;;;7.80;2.40;;;4.60;91.10;;;;;;5074215;28;20044;-77
2022/02/07 08:50:10;;;;;;;12.18;2.13;;;4.60;91.00;;;;;;5068895;28;20036;-77
2022/02/07 08:52:42;;;;;;;5.57;1.58;;;4.60;90.10;;;;;;5074931;28;20043;-77
2022/02/07 08:55:17;;;;;;;7.97;1.63;;;4.70;89.40;;;;;;5074037;28;20029;-80
2022/02/07 08:57:46;;;;;;;5.88;2.30;;;4.80;88.50;;;;;;5083404;28;20055;-77
2022/02/07 09:00:21;;;;;;;5.32;1.45;;;4.80;89.20;;;;;;5094543;28;20479;-77
2022/02/07 09:08:07;;;;;;;6.47;1.83;;;5.00;87.00;;;;;;5094780;28;20472;-78
2022/02/07 09:10:33;;;;;;;;;;;5.00;88.20;;;;;;5094913;28;20040;-77
2022/02/07 09:12:59;;;;;;;4.10;2.05;;;5.00;87.20;;;;;;5094694;28;19904;-78
2022/02/07 09:15:42;;;;;;;4.60;1.95;;;5.00;88.50;;;;;;5094813;28;20032;-77
2022/02/07 09:18:11;;;;;;;5.53;2.08;;;5.00;86.70;;;;;;5076315;28;20035;-77
2022/02/07 09:20:43;;;;;;;7.68;2.20;;;5.20;87.00;;;;;;5094144;28;20032;-80
2022/02/07 09:23:10;;;;;;;6.43;2.13;;;5.40;86.10;;;;;;5094563;28;20024;-77
2022/02/07 09:25:36;;;;;;;5.78;2.05;;;5.40;85.30;;;;;;5076395;28;20051;-77
2022/02/07 09:28:02;;;;;;;5.88;1.88;;;5.70;85.80;;;;;;5094240;28;20036;-76
2022/02/07 09:30:29;;;;;;;3.65;1.60;;;6.10;83.30;;;;;;5094767;28;20027;-77
2022/02/07 09:32:55;;;;;;;4.43;1.40;;;6.10;81.30;;;;;;5094088;28;20032;-79
2022/02/07 09:35:21;;;;;;;5.78;2.03;;;6.00;79.50;;;;;;5093726;28;20032;-78
2022/02/07 09:37:48;;;;;;;9.10;1.85;;;5.80;81.50;;;;;;5094024;28;20445;-76
2022/02/07 09:40:15;;;;;;;8.98;1.55;;;5.80;82.50;;;;;;5092246;28;20032;-77
2022/02/07 09:42:46;;;;;;;5.50;1.90;;;5.80;81.30;;;;;;5076285;28;20051;-76
2022/02/07 09:45:29;;;;;;;5.32;1.98;;;5.80;81.70;;;;;;5093766;28;20122;-77
2022/02/07 09:47:56;;;;;;;4.45;1.23;;;5.80;81.10;;;;;;5093871;28;20448;-77
2022/02/07 09:50:23;;;;;;;7.07;1.92;;;5.70;81.20;;;;;;5092626;28;20043;-77
2022/02/07 09:52:49;;;;;;;3.88;1.65;;;5.70;82.40;;;;;;5093568;28;20027;-78
2022/02/07 09:55:16;;;;;;;5.40;2.30;;;5.70;82.20;;;;;;5092170;28;20464;-83
2022/02/07 09:57:42;;;;;;;4.00;1.50;;;6.00;81.90;;;;;;5094143;28;20036;-82
2022/02/07 10:00:17;;;;;;;7.85;1.77;;;6.10;80.90;;;;;;5093032;28;20445;-84
2022/02/07 10:02:50;;;;;;;3.03;1.55;;;6.20;81.80;;;;;;5100542;28;20389;-83
2022/02/07 10:05:20;;;;;;;4.40;1.75;;;6.10;80.90;;;;;;5092170;28;20032;-83
2022/02/07 10:08:07;;;;;;;4.88;1.85;;;6.30;80.60;;;;;;5092389;28;20036;-83
2022/02/07 10:13:36;;;;;;;8.93;2.20;;;6.40;79.30;;;;;;5092808;28;20484;-84
2022/02/07 10:16:33;;;;;;;4.13;1.60;;;6.20;79.60;;;;;;5075090;28;20047;-85
2022/02/07 10:39:03;;;;;;;3.53;0.88;;;6.50;77.30;;;;;;5093541;28;20036;-84
2022/02/07 10:42:29;;;;;;;6.75;2.05;;;6.60;77.50;;;;;;5075061;28;20036;-86
2022/02/07 10:44:44;;;;;;;5.57;1.58;;;6.90;77.30;;;;;;5083272;28;20040;-83
2022/02/07 10:47:18;;;;;;;13.10;1.95;;;7.20;75.70;;;;;;5092377;28;20043;-87
2022/02/07 10:50:03;;;;;;;7.45;1.67;;;7.30;74.60;;;;;;5074792;28;20055;-86
2022/02/07 10:52:47;;;;;;;9.20;2.17;;;7.10;74.90;;;;;;5093253;28;20035;-84
2022/02/07 10:55:26;;;;;;;4.47;1.48;;;7.10;76.10;;;;;;5089840;28;20127;-83
2022/02/07 10:57:56;;;;;;;7.57;1.30;;;7.30;74.80;;;;;;5092081;28;20046;-83
2022/02/07 11:00:40;;;;;;;5.18;1.35;;;7.40;74.80;;;;;;5092425;28;20039;-83
2022/02/07 11:03:14;;;;;;;8.95;1.38;;;7.50;73.40;;;;;;5073936;28;20032;-83
2022/02/07 11:05:45;;;;;;;6.93;2.10;;;7.40;72.70;;;;;;5091941;28;20112;-84
2022/02/07 11:08:51;;;;;;;7.70;1.30;;;7.30;73.30;;;;;;5091424;28;20393;-81
2022/02/07 11:16:22;;;;;;;2.60;1.10;;;7.00;74.60;;;;;;5093134;28;20028;-82
2022/02/07 11:24:22;;;;;;;9.35;1.70;;;7.60;73.30;;;;;;5090108;28;20036;-83
2022/02/07 11:26:50;;;;;;;3.92;1.40;;;7.50;72.40;;;;;;5087107;28;20028;-83
2022/02/07 11:29:47;;;;;;;4.65;1.52;;;7.60;72.90;;;;;;5088884;28;20048;-82
2022/02/07 11:32:41;;;;;;;3.67;1.73;;;7.70;72.70;;;;;;5071323;28;20035;-82
2022/02/07 11:35:09;;;;;;;3.80;1.65;;;8.00;73.90;;;;;;5071258;28;20051;-85
2022/02/07 11:37:35;;;;;;;11.45;1.58;;;7.90;71.10;;;;;;5082966;28;20032;-85
2022/02/07 11:40:24;;;;;;;9.65;1.83;;;7.60;72.40;;;;;;5091842;28;20380;-82
2022/02/07 11:43:21;;;;;;;10.38;1.73;;;7.50;72.60;;;;;;5092539;28;20373;-83
2022/02/07 11:45:59;;;;;;;6.95;1.50;;;7.40;72.90;;;;;;5071811;28;20044;-84
2022/02/07 11:48:25;;;;;;;5.65;1.58;;;7.40;74.30;;;;;;5091662;28;20028;-84
2022/02/07 11:50:58;;;;;;;5.15;1.35;;;7.40;73.00;;;;;;5073486;28;20477;-85
2022/02/07 11:53:43;;;;;;;3.53;1.30;;;7.40;73.50;;;;;;5070463;28;20048;-82
2022/02/07 11:56:17;;;;;;;4.63;1.65;;;7.40;72.90;;;;;;5089946;28;20051;-83
2022/02/07 11:58:53;;;;;;;6.13;2.25;;;7.50;73.30;;;;;;5089601;28;20208;-85
2022/02/07 12:01:45;;;;;;;6.47;1.35;;;7.40;73.00;;;;;;5090610;28;20790;-83
2022/02/07 12:04:11;;;;;;;2.83;1.00;;;7.50;73.00;;;;;;5072504;28;20044;-84
2022/02/07 12:06:37;;;;;;;5.10;1.40;;;7.60;72.30;;;;;;5091504;28;20031;-87
2022/02/07 12:09:19;;;;;;;4.75;1.90;;;7.60;71.90;;;;;;5090787;28;20032;-82
2022/02/07 12:11:45;;;;;;;5.68;1.23;;;7.70;71.80;;;;;;5091624;28;20024;-84
2022/02/07 12:14:35;;;;;;;3.80;1.30;;;8.10;71.30;;;;;;5090907;28;20035;-85
2022/02/07 12:17:03;;;;;;;6.38;1.77;;;8.20;69.90;;;;;;5091487;28;20044;-82
2022/02/07 12:19:38;;;;;;;4.93;1.55;;;8.10;70.50;;;;;;5091713;28;20035;-85
2022/02/07 12:22:16;;;;;;;3.80;1.50;;;8.10;69.70;;;;;;5090932;28;20485;-86
2022/02/07 12:25:02;;;;;;;6.68;1.15;;;7.80;69.10;;;;;;5090845;28;20377;-86
2022/02/07 12:27:40;;;;;;;4.45;1.50;;;8.00;69.70;;;;;;5090945;28;20039;-87
2022/02/07 12:32:36;;;;;;;6.03;1.40;;;8.20;67.50;;;;;;5091177;28;20043;-85
2022/02/07 12:35:04;;;;;;;3.78;1.30;;;8.30;68.60;;;;;;5090958;28;20039;-83
2022/02/07 12:37:37;;;;;;;6.65;1.13;;;8.20;67.40;;;;;;5091623;28;20048;-87
2022/02/07 12:40:09;;;;;;;3.22;1.15;;;7.90;67.50;;;;;;5073181;28;20047;-84
2022/02/07 12:42:37;;;;;;;8.55;2.08;;;7.80;68.30;;;;;;5074855;28;20040;-81
2022/02/07 12:45:04;;;;;;;4.22;1.10;;;7.70;69.30;;;;;;5072701;28;20028;-83
2022/02/07 12:47:34;;;;;;;4.70;1.10;;;7.60;69.10;;;;;;5091090;28;20094;-80
2022/02/07 12:50:09;;;;;;;7.95;1.45;;;7.40;68.20;;;;;;5091501;28;20047;-80
2022/02/07 12:52:37;;;;;;;5.45;1.17;;;7.40;68.70;;;;;;5091446;28;20028;-81
2022/02/07 12:55:05;;;;;;;3.03;1.10;;;7.40;68.50;;;;;;5072581;28;20036;-85
2022/02/07 12:57:39;;;;;;;3.55;1.42;;;7.60;69.50;;;;;;5091071;28;20051;-80
2022/02/07 13:00:09;;;;;;;3.28;1.02;;;7.60;68.90;;;;;;5090546;28;20032;-82
2022/02/07 13:02:38;;;;;;;3.60;1.45;;;7.70;69.40;;;;;;5091249;28;20040;-80
2022/02/07 13:05:09;;;;;;;8.35;1.55;;;7.60;68.90;;;;;;5072817;28;20040;-81
2022/02/07 13:07:41;;;;;;;3.60;1.25;;;7.60;69.90;;;;;;5091361;28;20043;-81
2022/02/07 13:10:09;;;;;;;7.35;1.25;;;7.60;69.00;;;;;;5091254;28;20134;-81
2022/02/07 13:12:53;;;;;;;7.60;1.52;;;7.60;68.70;;;;;;5095090;28;20024;-79
2022/02/07 13:15:25;;;;;;;4.18;1.55;;;7.60;68.40;;;;;;5094343;28;20032;-83
2022/02/07 13:18:00;;;;;;;4.63;0.98;;;7.60;68.00;;;;;;5095255;28;20032;-81
2022/02/07 13:20:27;;;;;;;6.47;1.60;;;7.60;68.30;;;;;;5094693;28;20032;-81
2022/02/07 13:23:06;;;;;;;8.60;2.30;;;7.70;67.60;;;;;;5094845;28;20043;-83
2022/02/07 13:25:41;;;;;;;2.97;1.45;;;7.70;66.60;;;;;;5093614;28;20032;-84
2022/02/07 13:28:22;;;;;;;6.78;1.40;;;7.50;65.50;;;;;;5094171;28;20036;-84
2022/02/07 13:30:53;;;;;;;6.55;1.60;;;7.50;64.70;;;;;;5074759;28;20043;-83
2022/02/07 13:33:19;;;;;;;;;;;7.60;65.80;;;;;;5074484;28;20032;-82
2022/02/07 13:35:48;;;;;;;4.80;1.45;;;7.50;64.70;;;;;;5073685;28;19922;-83
2022/02/07 13:38:16;;;;;;;5.03;2.17;;;7.50;65.80;;;;;;5075485;28;20140;-83
2022/02/07 13:40:44;;;;;;;7.28;1.30;;;7.60;64.30;;;;;;5094705;28;20381;-83
2022/02/07 13:43:21;;;;;;;4.15;1.88;;;7.50;63.00;;;;;;5093447;28;20028;-83
2022/02/07 13:45:50;;;;;;;6.55;1.48;;;7.40;63.70;;;;;;5093895;28;20032;-84
2022/02/07 13:48:21;;;;;;;4.88;1.63;;;7.40;64.30;;;;;;5093210;28;20036;-84
2022/02/07 13:50:50;;;;;;;3.88;1.48;;;7.40;64.60;;;;;;5093438;28;20036;-86
2022/02/07 13:53:19;;;;;;;3.90;1.35;;;7.20;64.60;;;;;;5093523;28;20032;-75
2022/02/07 13:55:51;;;;;;;3.47;1.10;;;7.20;66.00;;;;;;5094166;28;20461;-75
2022/02/07 13:58:19;;;;;;;8.43;1.67;;;7.20;66.40;;;;;;5093129;28;20044;-84
2022/02/07 14:00:48;;;;;;;4.95;1.27;;;7.10;66.30;;;;;;5094053;28;20043;-83
2022/02/07 14:03:24;;;;;;;4.90;1.63;;;7.10;66.80;;;;;;5093248;28;20032;-83
2022/02/07 14:05:55;;;;;;;5.20;2.13;;;7.10;66.50;;;;;;5094155;28;20034;-83
2022/02/07 14:08:35;;;;;;;6.25;2.03;;;7.20;65.60;;;;;;5093111;28;20047;-83
2022/02/07 14:11:11;;;;;;;1.92;0.98;;;7.20;66.60;;;;;;5094327;28;20036;-82
2022/02/07 14:13:39;;;;;;;5.45;1.95;;;7.20;66.70;;;;;;5093925;28;20033;-81
2022/02/07 14:16:08;;;;;;;6.78;1.88;;;7.20;65.90;;;;;;5094083;28;20024;-80
2022/02/07 14:18:37;;;;;;;4.22;1.10;;;7.20;65.60;;;;;;5083530;28;20039;-80
2022/02/07 14:21:09;;;;;;;5.57;1.13;;;7.30;64.70;;;;;;5093698;28;20048;-82
2022/02/07 14:23:37;;;;;;;6.68;1.55;;;7.30;65.30;;;;;;5094460;28;20043;-80
2022/02/07 14:26:04;;;;;;;9.32;1.70;;;7.30;65.50;;;;;;5094218;28;20031;-80
2022/02/07 14:28:31;;;;;;;4.90;1.52;;;7.30;64.50;;;;;;5092924;28;20397;-80
2022/02/07 14:30:58;;;;;;;4.32;1.63;;;7.20;65.50;;;;;;5093136;28;20032;-80
2022/02/07 14:33:26;;;;;;;2.65;1.35;;;7.30;65.80;;;;;;5092654;28;20040;-80
2022/02/07 14:35:52;;;;;;;3.88;1.58;;;7.30;66.00;;;;;;5092367;28;20031;-80
2022/02/07 14:38:19;;;;;;;4.55;1.55;;;7.40;67.10;;;;;;5092855;28;20066;-80
2022/02/07 14:40:46;;;;;;;4.05;1.50;;;7.40;66.20;;;;;;5094187;28;20050;-80
2022/02/07 14:43:16;;;;;;;7.00;1.58;;;7.40;65.20;;;;;;5075068;28;20121;-80
2022/02/07 14:45:55;;;;;;;7.78;2.63;;;7.40;65.40;;;;;;5093218;28;20035;-80
2022/02/07 14:48:23;;;;;;;5.32;1.80;;;7.40;64.90;;;;;;5092965;28;20066;-80
2022/02/07 14:50:51;;;;;;;4.40;1.48;;;7.40;64.00;;;;;;5093441;28;20036;-79
2022/02/07 14:53:18;;;;;;;3.67;1.00;;;7.30;64.80;;;;;;5074146;28;20054;-81
2022/02/07 14:55:44;;;;;;;9.88;1.75;;;7.30;64.40;;;;;;5092616;28;20044;-80
2022/02/07 14:58:10;;;;;;;4.43;1.50;;;7.20;65.50;;;;;;5074218;28;20056;-81
2022/02/07 15:00:38;;;;;;;4.75;1.83;;;7.10;66.00;;;;;;5092912;28;20044;-79
2022/02/07 15:03:05;;;;;;;3.33;1.30;;;7.00;65.90;;;;;;5091692;28;20044;-80
2022/02/07 15:05:34;;;;;;;3.63;1.45;;;6.90;66.60;;;;;;5092402;28;20454;-82
2022/02/07 15:08:02;;;;;;;5.90;1.55;;;6.90;66.90;;;;;;5092008;28;20044;-82
2022/02/07 15:10:28;;;;;;;3.97;1.30;;;6.80;68.00;;;;;;5092555;28;20059;-73
2022/02/07 15:12:55;;;;;;;3.45;1.25;;;6.70;68.10;;;;;;5074594;28;20043;-73
2022/02/07 15:15:21;;;;;;;10.05;1.50;;;6.70;68.90;;;;;;5091982;28;20028;-73
2022/02/07 15:17:47;;;;;;;8.75;1.20;;;6.70;69.10;;;;;;5092612;28;20043;-73
2022/02/07 15:20:14;;;;;;;4.82;2.10;;;6.70;68.90;;;;;;5092159;28;20039;-73
2022/02/07 15:22:48;;;;;;;4.30;1.48;;;6.60;69.20;;;;;;5093068;28;20036;-73
2022/02/07 15:25:27;;;;;;;2.78;1.52;;;6.60;69.20;;;;;;5091864;28;20089;-73
2022/02/07 15:27:54;;;;;;;3.95;2.22;;;6.60;69.40;;;;;;5093119;28;20393;-73
2022/02/07 15:30:21;;;;;;;9.40;2.05;;;6.70;68.60;;;;;;5057058;28;20476;-73
2022/02/07 15:32:52;;;;;;;7.05;1.83;;;6.80;69.40;;;;;;5073546;28;20047;-73
2022/02/07 15:35:22;;;;;;;3.70;1.75;;;6.80;69.40;;;;;;5091657;28;20028;-74
2022/02/07 15:37:48;;;;;;;10.52;3.17;;;6.70;69.30;;;;;;5092723;28;20469;-74
2022/02/07 15:40:14;;;;;;;6.18;2.42;;;6.70;69.10;;;;;;5091785;28;20028;-74
2022/02/07 15:42:43;;;;;;;8.05;1.88;;;6.70;69.40;;;;;;5091921;28;20020;-73
2022/02/07 15:45:10;;;;;;;8.50;2.65;;;6.70;69.80;;;;;;5091967;28;20028;-74
2022/02/07 15:47:40;;;;;;;3.80;1.70;;;6.80;69.80;;;;;;5091807;28;20131;-74
2022/02/07 15:50:11;;;;;;;3.83;1.50;;;6.80;69.50;;;;;;5092106;28;20036;-74
2022/02/07 15:52:47;;;;;;;15.27;3.30;;;6.80;69.30;;;;;;5092095;28;20469;-74
2022/02/07 15:55:14;;;;;;;8.45;3.20;;;6.90;69.50;;;;;;5072551;28;20043;-75